createdAt,value
2018-05-29T00:01:05.149Z,8.07
2018-05-29T00:03:32.689Z,8.13
2018-05-29T00:06:00.212Z,9.33
2018-05-29T00:08:27.757Z,9.00
2018-05-29T00:10:55.632Z,10.47
2018-05-29T00:13:23.212Z,9.70
2018-05-29T00:15:50.746Z,8.97
2018-05-29T00:18:18.265Z,9.50
2018-05-29T00:20:45.810Z,10.77
2018-05-29T00:23:13.371Z,10.60
2018-05-29T00:25:41.138Z,10.33
2018-05-29T00:28:08.685Z,10.20
2018-05-29T00:30:36.212Z,10.47
2018-05-29T00:33:03.772Z,11.17
2018-05-29T00:35:31.304Z,10.60
2018-05-29T00:37:59.192Z,10.50
2018-05-29T00:40:26.728Z,10.50
2018-05-29T00:42:54.260Z,10.30
2018-05-29T00:45:21.807Z,10.00
2018-05-29T00:47:49.331Z,9.77
2018-05-29T00:50:17.028Z,10.17
2018-05-29T00:52:44.549Z,9.97
2018-05-29T00:58:16.036Z,10.33
2018-05-29T01:00:43.917Z,10.17
2018-05-29T01:03:11.448Z,12.47
2018-05-29T01:05:38.976Z,11.17
2018-05-29T01:08:06.533Z,11.10
2018-05-29T01:10:34.072Z,11.30
2018-05-29T01:13:01.816Z,11.07
2018-05-29T01:15:29.337Z,10.90
2018-05-29T01:17:56.856Z,10.60
2018-05-29T01:20:24.401Z,10.20
2018-05-29T01:22:51.928Z,10.80
2018-05-29T01:25:19.712Z,11.70
2018-05-29T01:27:47.241Z,10.67
2018-05-29T01:30:14.766Z,10.37
2018-05-29T01:32:42.316Z,10.80
2018-05-29T01:35:09.841Z,10.70
2018-05-29T01:37:37.925Z,10.83
2018-05-29T01:40:05.453Z,10.10
2018-05-29T01:42:32.985Z,9.93
2018-05-29T01:45:00.536Z,10.00
2018-05-29T01:47:28.055Z,10.43
2018-05-29T01:49:55.820Z,8.80
2018-05-29T01:52:23.861Z,9.90
2018-05-29T01:54:51.396Z,9.50
2018-05-29T01:57:18.956Z,10.00
2018-05-29T01:59:46.486Z,11.27
2018-05-29T02:02:14.252Z,10.70
2018-05-29T02:04:41.773Z,10.83
2018-05-29T02:07:09.299Z,12.27
2018-05-29T02:09:36.857Z,11.40
2018-05-29T02:12:04.382Z,11.17
2018-05-29T02:14:32.141Z,12.47
2018-05-29T02:16:59.660Z,11.43
2018-05-29T02:19:27.268Z,10.50
2018-05-29T02:21:54.817Z,10.77
2018-05-29T02:24:22.345Z,10.70
2018-05-29T02:26:49.903Z,12.80
2018-05-29T02:29:17.444Z,11.07
2018-05-29T02:31:44.978Z,12.10
2018-05-29T02:34:12.529Z,11.20
2018-05-29T02:36:40.059Z,11.50
2018-05-29T02:39:07.626Z,11.10
2018-05-29T02:41:35.161Z,11.67
2018-05-29T02:44:02.695Z,12.03
2018-05-29T02:46:30.235Z,11.20
2018-05-29T02:48:57.761Z,11.47
2018-05-29T02:51:25.334Z,13.20
2018-05-29T02:53:52.863Z,11.93
2018-05-29T02:56:20.395Z,11.73
2018-05-29T02:58:47.953Z,12.00
2018-05-29T03:01:15.509Z,10.97
2018-05-29T03:03:43.234Z,12.20
2018-05-29T03:06:10.769Z,12.10
2018-05-29T03:08:38.300Z,10.50
2018-05-29T03:11:05.845Z,11.13
2018-05-29T03:13:33.372Z,11.47
2018-05-29T03:16:00.948Z,11.13
2018-05-29T03:18:28.469Z,11.37
2018-05-29T03:20:56.184Z,10.90
2018-05-29T03:23:23.726Z,11.60
2018-05-29T03:25:51.258Z,11.63
2018-05-29T03:28:18.815Z,11.00
2018-05-29T03:30:46.341Z,12.60
2018-05-29T03:33:13.866Z,11.13
2018-05-29T03:35:42.531Z,10.60
2018-05-29T03:38:10.064Z,12.80
2018-05-29T03:40:37.831Z,12.40
2018-05-29T03:43:05.360Z,10.13
2018-05-29T03:45:32.885Z,11.63
2018-05-29T03:48:00.433Z,11.07
2018-05-29T03:50:27.952Z,10.77
2018-05-29T03:52:55.526Z,11.20
2018-05-29T03:55:23.048Z,10.53
2018-05-29T03:57:50.576Z,11.40
2018-05-29T04:00:18.303Z,10.00
2018-05-29T04:02:45.854Z,10.30
2018-05-29T04:05:14.385Z,12.27
2018-05-29T04:07:41.948Z,11.70
2018-05-29T04:10:09.465Z,10.97
2018-05-29T04:12:36.984Z,10.73
2018-05-29T04:15:04.545Z,10.60
2018-05-29T04:17:32.077Z,10.67
2018-05-29T04:19:59.678Z,11.00
2018-05-29T04:22:31.720Z,10.47
2018-05-29T04:25:00.500Z,12.20
2018-05-29T04:27:28.072Z,11.23
2018-05-29T04:29:55.591Z,11.27
2018-05-29T04:32:23.117Z,10.30
2018-05-29T04:34:50.670Z,10.97
2018-05-29T04:37:18.200Z,12.07
2018-05-29T04:39:45.736Z,11.87
2018-05-29T04:42:13.336Z,11.53
2018-05-29T04:44:40.885Z,11.00
2018-05-29T04:47:08.440Z,11.57
2018-05-29T04:49:35.983Z,12.23
2018-05-29T04:52:03.517Z,14.63
2018-05-29T04:54:31.050Z,13.33
2018-05-29T04:56:58.605Z,13.03
2018-05-29T04:59:26.136Z,12.03
2018-05-29T05:01:53.663Z,13.10
2018-05-29T05:04:21.233Z,13.40
2018-05-29T05:06:48.808Z,11.93
2018-05-29T05:09:16.331Z,13.10
2018-05-29T05:11:43.880Z,12.00
2018-05-29T05:14:11.405Z,11.90
2018-05-29T05:16:38.955Z,11.93
2018-05-29T05:19:06.513Z,11.70
2018-05-29T05:21:34.053Z,12.70
2018-05-29T05:24:01.573Z,12.03
2018-05-29T05:26:29.123Z,12.80
2018-05-29T05:28:56.669Z,12.57
2018-05-29T05:31:24.217Z,12.60
2018-05-29T05:33:51.760Z,12.70
2018-05-29T05:36:19.285Z,11.27
2018-05-29T05:38:46.833Z,11.10
2018-05-29T05:41:14.362Z,11.23
2018-05-29T05:43:41.886Z,11.83
2018-05-29T05:46:09.491Z,12.87
2018-05-29T05:48:36.989Z,11.93
2018-05-29T05:51:04.537Z,12.33
2018-05-29T05:53:32.096Z,13.10
2018-05-29T05:55:59.684Z,12.13
2018-05-29T05:58:27.324Z,11.87
2018-05-29T06:00:54.809Z,13.50
2018-05-29T06:03:22.356Z,11.53
2018-05-29T06:05:49.910Z,12.07
2018-05-29T06:08:17.877Z,14.97
2018-05-29T06:10:45.451Z,12.47
2018-05-29T06:13:13.022Z,13.70
2018-05-29T06:15:40.612Z,13.97
2018-05-29T06:18:09.239Z,13.93
2018-05-29T06:20:36.756Z,14.20
2018-05-29T06:23:04.316Z,13.00
2018-05-29T06:25:31.849Z,11.90
2018-05-29T06:27:59.675Z,13.30
2018-05-29T06:30:27.211Z,13.10
2018-05-29T06:32:54.743Z,12.67
2018-05-29T06:35:22.301Z,13.03
2018-05-29T06:37:49.843Z,12.30
2018-05-29T06:40:17.560Z,12.37
2018-05-29T06:42:45.098Z,12.97
2018-05-29T06:45:12.685Z,12.40
2018-05-29T06:47:40.227Z,13.07
2018-05-29T06:50:08.325Z,10.87
2018-05-29T06:52:36.107Z,11.30
2018-05-29T06:55:03.615Z,11.00
2018-05-29T06:57:31.144Z,11.20
2018-05-29T06:59:58.692Z,11.80
2018-05-29T07:02:26.221Z,11.33
2018-05-29T07:04:54.129Z,11.47
2018-05-29T07:07:21.658Z,11.93
2018-05-29T07:09:50.135Z,10.60
2018-05-29T07:12:17.689Z,11.13
2018-05-29T07:14:45.216Z,10.73
2018-05-29T07:17:13.200Z,11.10
2018-05-29T07:19:40.724Z,9.80
2018-05-29T07:22:08.252Z,10.90
2018-05-29T07:24:36.837Z,11.20
2018-05-29T07:27:04.369Z,10.20
2018-05-29T07:29:33.065Z,11.07
2018-05-29T07:32:00.599Z,11.63
2018-05-29T07:34:28.163Z,10.17
2018-05-29T07:36:55.712Z,11.47
2018-05-29T07:39:23.249Z,11.87
2018-05-29T07:41:50.902Z,9.93
2018-05-29T07:44:18.437Z,9.77
2018-05-29T07:46:45.956Z,10.13
2018-05-29T07:49:13.513Z,9.47
2018-05-29T07:51:41.100Z,9.33
2018-05-29T07:54:08.653Z,8.37
2018-05-29T07:56:36.173Z,9.53
2018-05-29T07:59:03.704Z,9.50
2018-05-29T08:01:31.262Z,9.33
2018-05-29T08:03:59.740Z,8.73
2018-05-29T08:06:27.589Z,9.03
2018-05-29T08:08:55.121Z,8.37
2018-05-29T08:11:22.636Z,8.53
2018-05-29T08:13:50.181Z,9.03
2018-05-29T08:16:17.698Z,7.23
2018-05-29T08:18:45.243Z,7.87
2018-05-29T08:21:12.760Z,6.60
2018-05-29T08:23:40.285Z,6.30
2018-05-29T08:26:07.825Z,6.50
2018-05-29T08:28:35.339Z,6.80
2018-05-29T08:31:03.093Z,7.47
2018-05-29T08:33:30.605Z,6.40
2018-05-29T08:35:58.128Z,7.23
2018-05-29T08:38:25.682Z,7.50
2018-05-29T08:40:53.206Z,6.30
2018-05-29T08:43:21.255Z,5.67
2018-05-29T08:45:49.863Z,6.73
2018-05-29T08:48:17.375Z,5.73
2018-05-29T08:50:44.921Z,5.97
2018-05-29T08:53:12.440Z,5.60
2018-05-29T08:55:39.994Z,5.87
2018-05-29T08:58:07.532Z,6.07
2018-05-29T09:00:35.355Z,6.67
2018-05-29T09:03:02.915Z,6.63
2018-05-29T09:05:30.442Z,6.03
2018-05-29T09:07:58.716Z,5.90
2018-05-29T09:10:26.237Z,6.27
2018-05-29T09:12:53.761Z,6.90
2018-05-29T09:15:21.369Z,5.50
2018-05-29T09:17:48.862Z,6.20
2018-05-29T09:20:16.677Z,6.20
2018-05-29T09:22:44.213Z,6.30
2018-05-29T09:25:11.741Z,6.27
2018-05-29T09:27:39.290Z,8.10
2018-05-29T09:30:06.854Z,6.13
2018-05-29T09:32:34.560Z,6.60
2018-05-29T09:35:02.078Z,6.37
2018-05-29T09:37:29.625Z,5.67
2018-05-29T09:39:57.173Z,7.10
2018-05-29T09:42:24.690Z,6.70
2018-05-29T09:44:52.253Z,6.80
2018-05-29T09:47:19.836Z,6.03
2018-05-29T09:49:47.384Z,6.60
2018-05-29T09:52:14.947Z,6.47
2018-05-29T09:54:42.468Z,6.97
2018-05-29T09:57:10.561Z,6.37
2018-05-29T09:59:38.094Z,8.20
2018-05-29T10:02:05.627Z,6.40
2018-05-29T10:04:33.181Z,7.00
2018-05-29T10:07:00.767Z,6.10
2018-05-29T10:09:28.828Z,6.03
2018-05-29T10:11:56.352Z,6.07
2018-05-29T10:14:23.876Z,5.10
2018-05-29T10:16:51.429Z,6.03
2018-05-29T10:19:18.988Z,5.47
2018-05-29T10:21:46.540Z,6.63
2018-05-29T10:24:14.054Z,5.13
2018-05-29T10:26:41.568Z,5.27
2018-05-29T10:29:09.112Z,5.50
2018-05-29T10:31:36.659Z,5.70
2018-05-29T10:34:04.285Z,5.87
2018-05-29T10:36:31.813Z,6.33
2018-05-29T10:38:59.364Z,5.70
2018-05-29T10:41:26.914Z,5.97
2018-05-29T10:43:54.433Z,5.20
2018-05-29T10:46:22.301Z,6.50
2018-05-29T10:48:49.821Z,6.70
2018-05-29T10:51:17.344Z,7.37
2018-05-29T10:53:44.900Z,6.83
2018-05-29T10:56:12.429Z,7.20
2018-05-29T10:58:40.101Z,6.90
2018-05-29T11:01:07.619Z,6.07
2018-05-29T11:03:35.149Z,6.33
2018-05-29T11:06:02.700Z,7.20
2018-05-29T11:08:30.232Z,7.03
2018-05-29T11:10:58.403Z,5.70
2018-05-29T11:13:26.277Z,7.10
2018-05-29T11:15:53.793Z,6.80
2018-05-29T11:18:21.342Z,5.80
2018-05-29T11:20:48.867Z,6.13
2018-05-29T11:23:16.624Z,6.40
2018-05-29T11:25:44.149Z,6.00
2018-05-29T11:28:11.669Z,6.47
2018-05-29T11:30:39.213Z,5.80
2018-05-29T11:33:06.724Z,6.93
2018-05-29T11:35:34.271Z,6.13
2018-05-29T11:38:01.787Z,5.63
2018-05-29T11:40:29.434Z,5.30
2018-05-29T11:42:56.988Z,6.20
2018-05-29T11:45:24.530Z,5.53
2018-05-29T11:47:52.216Z,7.03
2018-05-29T11:50:19.737Z,5.70
2018-05-29T11:52:47.260Z,6.57
2018-05-29T11:55:14.808Z,6.63
2018-05-29T11:57:42.320Z,6.10
2018-05-29T12:00:10.008Z,6.40
2018-05-29T12:02:37.530Z,6.00
2018-05-29T12:05:05.160Z,6.67
2018-05-29T12:07:32.707Z,6.93
2018-05-29T12:10:00.773Z,7.00
2018-05-29T12:12:28.340Z,6.57
2018-05-29T12:14:55.862Z,6.97
2018-05-29T12:17:24.169Z,6.90
2018-05-29T12:19:51.756Z,6.37
2018-05-29T12:22:19.326Z,5.33
2018-05-29T12:24:46.841Z,5.70
2018-05-29T12:27:14.368Z,5.77
2018-05-29T12:29:41.941Z,4.93
2018-05-29T12:32:09.469Z,5.67
2018-05-29T12:34:37.000Z,4.87
2018-05-29T12:37:04.557Z,5.27
2018-05-29T12:39:32.071Z,6.20
2018-05-29T12:41:59.777Z,6.40
2018-05-29T12:44:27.323Z,5.60
2018-05-29T12:46:54.847Z,5.30
2018-05-29T12:49:22.396Z,6.87
2018-05-29T12:51:49.920Z,7.73
2018-05-29T12:54:17.474Z,8.40
2018-05-29T12:56:45.005Z,7.90
2018-05-29T12:59:12.546Z,8.17
2018-05-29T13:01:40.121Z,7.07
2018-05-29T13:04:07.645Z,7.83
2018-05-29T13:06:35.448Z,7.00
2018-05-29T13:09:02.992Z,7.23
2018-05-29T13:11:30.516Z,6.63
2018-05-29T13:13:58.065Z,6.70
2018-05-29T13:16:25.580Z,7.20
2018-05-29T13:18:53.129Z,6.67
2018-05-29T13:21:20.649Z,6.40
2018-05-29T13:23:48.179Z,5.37
2018-05-29T13:26:15.733Z,5.60
2018-05-29T13:28:43.303Z,6.37
2018-05-29T13:31:11.141Z,6.40
2018-05-29T13:33:38.665Z,5.80
2018-05-29T13:36:06.193Z,7.40
2018-05-29T13:38:33.732Z,7.83
2018-05-29T13:41:01.253Z,7.27
2018-05-29T13:43:28.937Z,6.77
2018-05-29T13:45:56.464Z,7.30
2018-05-29T13:48:24.011Z,8.07
2018-05-29T13:50:51.560Z,7.73
2018-05-29T13:53:19.087Z,6.57
2018-05-29T13:55:46.660Z,7.50
2018-05-29T13:58:14.221Z,7.30
2018-05-29T14:00:41.747Z,6.70
2018-05-29T14:03:09.317Z,6.93
2018-05-29T14:05:36.831Z,6.40
2018-05-29T14:08:04.553Z,6.03
2018-05-29T14:10:32.084Z,6.70
2018-05-29T14:12:59.613Z,6.67
2018-05-29T14:15:27.148Z,4.77
2018-05-29T14:17:54.733Z,6.80
2018-05-29T14:20:23.369Z,5.83
2018-05-29T14:22:51.234Z,5.43
2018-05-29T14:25:19.221Z,5.30
2018-05-29T14:27:46.917Z,5.40
2018-05-29T14:30:14.629Z,5.80
2018-05-29T14:32:42.647Z,6.27
2018-05-29T14:35:10.931Z,6.10
2018-05-29T14:37:38.584Z,7.13
2018-05-29T14:40:06.152Z,6.13
2018-05-29T14:42:33.962Z,6.10
2018-05-29T14:45:01.808Z,7.30
2018-05-29T14:47:30.290Z,6.03
2018-05-29T14:49:57.870Z,6.87
2018-05-29T14:52:26.849Z,6.70
2018-05-29T14:54:54.524Z,6.90
2018-05-29T14:57:22.805Z,6.80
2018-05-29T14:59:50.348Z,7.37
2018-05-29T15:02:18.227Z,8.10
2018-05-29T15:04:46.092Z,8.60
2018-05-29T15:07:13.700Z,8.03
2018-05-29T15:09:42.362Z,8.10
2018-05-29T15:12:10.204Z,7.20
2018-05-29T15:14:38.010Z,7.00
2018-05-29T15:17:05.732Z,7.07
2018-05-29T15:19:33.303Z,6.50
2018-05-29T15:22:00.954Z,5.90
2018-05-29T15:24:28.620Z,6.43
2018-05-29T15:26:56.481Z,6.77
2018-05-29T15:29:24.348Z,7.63
2018-05-29T15:31:52.523Z,7.97
2018-05-29T15:34:20.119Z,7.00
2018-05-29T15:36:48.049Z,6.30
2018-05-29T15:39:15.604Z,5.00
2018-05-29T15:41:44.293Z,6.90
2018-05-29T15:44:11.882Z,6.50
2018-05-29T15:46:39.520Z,8.17
2018-05-29T15:49:07.044Z,7.60
2018-05-29T15:51:34.572Z,7.30
2018-05-29T15:54:02.152Z,7.00
2018-05-29T15:56:29.857Z,8.10
2018-05-29T15:58:57.807Z,7.67
2018-05-29T16:01:25.404Z,8.90
2018-05-29T16:03:53.058Z,8.60
2018-05-29T16:06:20.620Z,7.00
2018-05-29T16:08:49.102Z,9.40
2018-05-29T16:11:16.856Z,7.70
2018-05-29T16:13:44.417Z,7.43
2018-05-29T16:16:12.165Z,8.17
2018-05-29T16:18:39.742Z,7.60
2018-05-29T16:21:07.396Z,7.07
2018-05-29T16:23:34.988Z,9.27
2018-05-29T16:26:02.720Z,8.90
2018-05-29T16:28:30.466Z,36.17
2018-05-29T16:30:58.250Z,14.53
2018-05-29T16:33:26.115Z,8.93
2018-05-29T16:35:54.085Z,9.43
2018-05-29T16:38:21.850Z,9.10
2018-05-29T16:40:49.478Z,7.53
2018-05-29T16:43:17.173Z,7.67
2018-05-29T16:45:44.728Z,6.90
2018-05-29T16:48:12.702Z,7.60
2018-05-29T16:50:40.365Z,7.93
2018-05-29T16:53:08.234Z,8.33
2018-05-29T16:55:35.956Z,8.60
2018-05-29T16:58:03.639Z,8.07
2018-05-29T17:00:31.265Z,8.03
2018-05-29T17:02:59.003Z,6.23
2018-05-29T17:05:26.556Z,5.67
2018-05-29T17:07:54.258Z,6.20
2018-05-29T17:10:21.793Z,5.47
2018-05-29T17:12:49.602Z,6.60
2018-05-29T17:15:17.222Z,6.30
2018-05-29T17:17:44.841Z,6.00
2018-05-29T17:20:12.459Z,5.83
2018-05-29T17:22:40.008Z,5.63
2018-05-29T17:25:07.834Z,6.70
2018-05-29T17:27:35.596Z,5.70
2018-05-29T17:30:03.142Z,5.50
2018-05-29T17:32:30.821Z,6.30
2018-05-29T17:34:58.684Z,6.43
2018-05-29T17:37:26.449Z,5.57
2018-05-29T17:39:54.000Z,6.57
2018-05-29T17:42:22.083Z,6.13
2018-05-29T17:44:49.706Z,5.97
2018-05-29T17:47:17.244Z,6.13
2018-05-29T17:49:44.954Z,6.07
2018-05-29T17:52:12.478Z,5.53
2018-05-29T17:54:40.069Z,5.60
2018-05-29T17:57:07.923Z,6.20
2018-05-29T17:59:35.670Z,5.47
2018-05-29T18:02:03.533Z,7.20
2018-05-29T18:04:31.056Z,6.80
2018-05-29T18:06:58.669Z,6.20
2018-05-29T18:09:26.360Z,6.27
2018-05-29T18:11:53.897Z,7.40
2018-05-29T18:14:21.688Z,27.80
2018-05-29T18:16:49.311Z,10.13
2018-05-29T18:19:17.316Z,8.10
2018-05-29T18:21:44.909Z,8.63
2018-05-29T18:24:13.074Z,8.00
2018-05-29T18:26:41.216Z,8.20
2018-05-29T18:29:08.760Z,8.50
2018-05-29T18:31:36.321Z,8.70
2018-05-29T18:34:04.924Z,7.87
2018-05-29T18:36:32.502Z,7.77
2018-05-29T18:39:00.114Z,8.10
2018-05-29T18:41:27.661Z,8.30
2018-05-29T18:43:55.189Z,8.93
2018-05-29T18:46:22.900Z,8.37
2018-05-29T18:48:50.491Z,8.10
2018-05-29T18:51:18.116Z,8.97
2018-05-29T18:53:45.808Z,9.63
2018-05-29T18:56:13.572Z,17.90
2018-05-29T18:58:41.117Z,13.07
2018-05-29T19:01:08.717Z,11.50
2018-05-29T19:03:36.693Z,10.30
2018-05-29T19:06:04.422Z,9.20
2018-05-29T19:08:32.203Z,10.70
2018-05-29T19:11:00.166Z,10.00
2018-05-29T19:13:27.925Z,10.80
2018-05-29T19:15:55.534Z,10.03
2018-05-29T19:18:23.316Z,10.23
2018-05-29T19:20:50.854Z,9.80
2018-05-29T19:23:18.589Z,10.20
2018-05-29T19:25:46.639Z,34.97
2018-05-29T19:28:14.914Z,39.27
2018-05-29T19:30:42.534Z,11.80
2018-05-29T19:33:10.341Z,9.70
2018-05-29T19:35:38.109Z,11.07
2018-05-29T19:38:05.974Z,11.80
2018-05-29T19:40:34.043Z,11.87
2018-05-29T19:43:01.804Z,12.17
2018-05-29T19:45:29.572Z,12.43
2018-05-29T19:47:57.440Z,11.37
2018-05-29T19:50:25.203Z,11.30
2018-05-29T19:52:52.968Z,10.60
2018-05-29T19:55:20.629Z,10.60
2018-05-29T19:57:48.497Z,12.73
2018-05-29T20:00:16.464Z,11.83
2018-05-29T20:02:44.256Z,10.23
2018-05-29T20:05:12.352Z,11.00
2018-05-29T20:07:40.679Z,11.00
2018-05-29T20:10:08.548Z,11.00
2018-05-29T20:12:36.512Z,12.37
2018-05-29T20:15:04.380Z,10.83
2018-05-29T20:17:33.389Z,12.43
2018-05-29T20:20:01.373Z,11.87
2018-05-29T20:22:29.311Z,12.00
2018-05-29T20:24:57.178Z,13.20
2018-05-29T20:27:25.430Z,11.93
2018-05-29T20:29:53.629Z,19.00
2018-05-29T20:32:21.497Z,16.00
2018-05-29T20:34:49.807Z,17.77
2018-05-29T20:37:17.744Z,13.70
2018-05-29T20:39:45.610Z,12.90
2018-05-29T20:42:13.882Z,13.17
2018-05-29T20:44:41.749Z,11.93
2018-05-29T20:47:09.616Z,14.00
2018-05-29T20:49:37.627Z,13.93
2018-05-29T20:52:05.255Z,14.77
2018-05-29T20:54:33.102Z,12.53
2018-05-29T20:57:00.880Z,13.73
2018-05-29T20:59:28.539Z,13.20
2018-05-29T21:01:56.306Z,12.83
2018-05-29T21:04:23.926Z,13.10
2018-05-29T21:06:51.628Z,12.23
2018-05-29T21:09:19.495Z,13.00
2018-05-29T21:11:47.101Z,13.00
2018-05-29T21:14:14.919Z,13.77
2018-05-29T21:16:42.456Z,13.03
2018-05-29T21:19:10.332Z,12.67
2018-05-29T21:21:37.970Z,14.30
2018-05-29T21:24:05.575Z,13.70
2018-05-29T21:26:33.331Z,14.10
2018-05-29T21:29:00.916Z,13.73
2018-05-29T21:31:28.877Z,13.80
2018-05-29T21:33:56.417Z,13.07
2018-05-29T21:36:23.953Z,15.30
2018-05-29T21:38:51.512Z,12.97
2018-05-29T21:41:19.042Z,14.03
2018-05-29T21:43:47.274Z,13.23
2018-05-29T21:46:14.889Z,13.00
2018-05-29T21:48:42.422Z,13.70
2018-05-29T21:51:09.988Z,13.63
2018-05-29T21:53:37.546Z,12.23
2018-05-29T21:56:05.260Z,13.73
2018-05-29T21:58:32.786Z,14.13
2018-05-29T22:01:00.336Z,14.00
2018-05-29T22:03:28.400Z,13.83
2018-05-29T22:05:55.936Z,14.20
2018-05-29T22:08:23.671Z,14.40
2018-05-29T22:10:51.197Z,13.67
2018-05-29T22:13:18.726Z,14.67
2018-05-29T22:15:46.957Z,12.40
2018-05-29T22:18:14.524Z,14.50
2018-05-29T22:20:42.089Z,13.70
2018-05-29T22:23:09.642Z,12.00
2018-05-29T22:25:37.384Z,11.80
2018-05-29T22:28:04.972Z,14.00
2018-05-29T22:30:32.964Z,13.67
2018-05-29T22:33:00.692Z,12.50
2018-05-29T22:35:28.329Z,12.50
2018-05-29T22:37:55.865Z,12.57
2018-05-29T22:40:23.417Z,12.57
2018-05-29T22:42:50.984Z,13.50
2018-05-29T22:45:19.943Z,12.03
2018-05-29T22:47:47.471Z,12.10
2018-05-29T22:50:15.000Z,13.20
2018-05-29T22:52:42.581Z,14.60
2018-05-29T22:55:10.136Z,14.93
2018-05-29T22:57:37.825Z,14.90
2018-05-29T23:00:05.362Z,14.93
2018-05-29T23:02:32.893Z,15.43
2018-05-29T23:05:00.831Z,16.83
2018-05-29T23:07:28.381Z,16.73
2018-05-29T23:09:55.948Z,18.47
2018-05-29T23:12:23.501Z,17.67
2018-05-29T23:14:51.580Z,15.70
2018-05-29T23:17:19.149Z,16.73
2018-05-29T23:19:46.672Z,16.37
2018-05-29T23:22:14.952Z,17.37
2018-05-29T23:24:42.502Z,18.20
2018-05-29T23:27:10.036Z,20.80
2018-05-29T23:29:37.593Z,22.60
2018-05-29T23:32:05.114Z,19.50
2018-05-29T23:34:33.181Z,20.13
2018-05-29T23:37:00.702Z,20.77
2018-05-29T23:39:28.232Z,21.20
2018-05-29T23:41:55.857Z,21.60
2018-05-29T23:44:23.396Z,20.27
2018-05-29T23:46:52.000Z,19.93
2018-05-29T23:49:19.529Z,19.77
2018-05-29T23:51:47.069Z,18.77
2018-05-29T23:54:14.633Z,19.53
2018-05-29T23:56:42.169Z,20.60
2018-05-29T23:59:09.979Z,21.20
